sensor_id;sensor_type;location;lat;lon;timestamp;P1;durP1;ratioP1;P2;durP2;ratioP2
19664;SDS011;9980;51.020;7.772;2023-02-22T00:01:53;56.23;;;11.13;;
19664;SDS011;9980;51.020;7.772;2023-02-22T00:04:36;42.37;;;10.93;;
19664;SDS011;9980;51.020;7.772;2023-02-22T00:07:05;31.30;;;9.80;;
19664;SDS011;9980;51.020;7.772;2023-02-22T00:09:33;31.77;;;10.17;;
19664;SDS011;9980;51.020;7.772;2023-02-22T00:12:02;11.03;;;8.40;;
19664;SDS011;9980;51.020;7.772;2023-02-22T00:14:29;30.90;;;9.37;;
19664;SDS011;9980;51.020;7.772;2023-02-22T00:16:56;21.97;;;9.90;;
19664;SDS011;9980;51.020;7.772;2023-02-22T00:19:25;128.13;;;13.43;;
19664;SDS011;9980;51.020;7.772;2023-02-22T00:21:55;68.93;;;11.23;;
19664;SDS011;9980;51.020;7.772;2023-02-22T00:24:23;69.47;;;12.10;;
19664;SDS011;9980;51.020;7.772;2023-02-22T00:26:53;59.73;;;11.10;;
19664;SDS011;9980;51.020;7.772;2023-02-22T00:29:21;103.63;;;13.70;;
19664;SDS011;9980;51.020;7.772;2023-02-22T00:31:50;97.33;;;13.63;;
19664;SDS011;9980;51.020;7.772;2023-02-22T00:34:18;57.03;;;10.83;;
19664;SDS011;9980;51.020;7.772;2023-02-22T00:36:47;75.67;;;12.03;;
19664;SDS011;9980;51.020;7.772;2023-02-22T00:39:15;27.37;;;10.17;;
19664;SDS011;9980;51.020;7.772;2023-02-22T00:41:42;56.53;;;11.33;;
19664;SDS011;9980;51.020;7.772;2023-02-22T00:44:10;15.13;;;9.63;;
19664;SDS011;9980;51.020;7.772;2023-02-22T00:46:37;21.27;;;9.77;;
19664;SDS011;9980;51.020;7.772;2023-02-22T00:49:04;28.63;;;9.10;;
19664;SDS011;9980;51.020;7.772;2023-02-22T00:51:31;15.47;;;8.13;;
19664;SDS011;9980;51.020;7.772;2023-02-22T00:53:59;53.80;;;10.70;;
19664;SDS011;9980;51.020;7.772;2023-02-22T00:56:26;10.60;;;8.70;;
19664;SDS011;9980;51.020;7.772;2023-02-22T00:58:53;44.67;;;10.50;;
19664;SDS011;9980;51.020;7.772;2023-02-22T01:01:20;16.10;;;8.57;;
19664;SDS011;9980;51.020;7.772;2023-02-22T01:03:49;24.87;;;10.57;;
19664;SDS011;9980;51.020;7.772;2023-02-22T01:06:19;46.90;;;10.13;;
19664;SDS011;9980;51.020;7.772;2023-02-22T01:08:49;8.63;;;7.73;;
19664;SDS011;9980;51.020;7.772;2023-02-22T01:11:16;28.40;;;8.87;;
19664;SDS011;9980;51.020;7.772;2023-02-22T01:13:47;25.00;;;9.00;;
19664;SDS011;9980;51.020;7.772;2023-02-22T01:16:14;16.07;;;8.27;;
19664;SDS011;9980;51.020;7.772;2023-02-22T01:18:41;34.60;;;9.23;;
19664;SDS011;9980;51.020;7.772;2023-02-22T01:21:08;25.87;;;8.83;;
19664;SDS011;9980;51.020;7.772;2023-02-22T01:23:35;34.17;;;9.00;;
19664;SDS011;9980;51.020;7.772;2023-02-22T01:26:02;17.67;;;8.30;;
19664;SDS011;9980;51.020;7.772;2023-02-22T01:28:33;21.33;;;8.57;;
19664;SDS011;9980;51.020;7.772;2023-02-22T01:31:00;47.20;;;8.97;;
19664;SDS011;9980;51.020;7.772;2023-02-22T01:33:31;45.00;;;8.67;;
19664;SDS011;9980;51.020;7.772;2023-02-22T01:35:59;33.67;;;9.63;;
19664;SDS011;9980;51.020;7.772;2023-02-22T01:38:26;38.47;;;10.10;;
19664;SDS011;9980;51.020;7.772;2023-02-22T01:40:53;18.33;;;9.07;;
19664;SDS011;9980;51.020;7.772;2023-02-22T01:43:24;26.90;;;7.90;;
19664;SDS011;9980;51.020;7.772;2023-02-22T01:45:57;25.27;;;8.40;;
19664;SDS011;9980;51.020;7.772;2023-02-22T01:48:34;29.67;;;8.00;;
19664;SDS011;9980;51.020;7.772;2023-02-22T01:51:14;30.80;;;7.80;;
19664;SDS011;9980;51.020;7.772;2023-02-22T01:53:57;31.57;;;7.57;;
19664;SDS011;9980;51.020;7.772;2023-02-22T01:56:31;46.10;;;8.83;;
19664;SDS011;9980;51.020;7.772;2023-02-22T01:59:05;60.37;;;8.97;;
19664;SDS011;9980;51.020;7.772;2023-02-22T02:01:38;17.80;;;7.63;;
19664;SDS011;9980;51.020;7.772;2023-02-22T02:04:12;33.07;;;8.80;;
19664;SDS011;9980;51.020;7.772;2023-02-22T02:06:53;56.13;;;9.57;;
19664;SDS011;9980;51.020;7.772;2023-02-22T02:09:26;39.30;;;8.17;;
19664;SDS011;9980;51.020;7.772;2023-02-22T02:12:17;22.37;;;7.97;;
19664;SDS011;9980;51.020;7.772;2023-02-22T02:14:49;21.13;;;7.57;;
19664;SDS011;9980;51.020;7.772;2023-02-22T02:17:20;29.47;;;6.80;;
19664;SDS011;9980;51.020;7.772;2023-02-22T02:30:01;74.73;;;9.77;;
19664;SDS011;9980;51.020;7.772;2023-02-22T02:32:32;119.30;;;10.57;;
19664;SDS011;9980;51.020;7.772;2023-02-22T02:37:56;91.40;;;9.23;;
19664;SDS011;9980;51.020;7.772;2023-02-22T02:40:51;60.37;;;8.73;;
19664;SDS011;9980;51.020;7.772;2023-02-22T02:46:27;59.20;;;8.67;;
19664;SDS011;9980;51.020;7.772;2023-02-22T02:49:04;18.53;;;7.73;;
19664;SDS011;9980;51.020;7.772;2023-02-22T02:51:38;60.47;;;8.53;;
19664;SDS011;9980;51.020;7.772;2023-02-22T02:54:11;70.17;;;9.33;;
19664;SDS011;9980;51.020;7.772;2023-02-22T02:56:40;41.33;;;8.10;;
19664;SDS011;9980;51.020;7.772;2023-02-22T02:59:28;87.13;;;10.33;;
19664;SDS011;9980;51.020;7.772;2023-02-22T03:02:03;65.07;;;9.80;;
19664;SDS011;9980;51.020;7.772;2023-02-22T03:04:53;80.10;;;9.83;;
19664;SDS011;9980;51.020;7.772;2023-02-22T03:11:05;57.57;;;8.67;;
19664;SDS011;9980;51.020;7.772;2023-02-22T03:13:49;63.63;;;8.10;;
19664;SDS011;9980;51.020;7.772;2023-02-22T03:16:50;63.40;;;10.70;;
19664;SDS011;9980;51.020;7.772;2023-02-22T03:19:34;33.90;;;7.90;;
19664;SDS011;9980;51.020;7.772;2023-02-22T03:22:24;80.00;;;9.20;;
19664;SDS011;9980;51.020;7.772;2023-02-22T03:25:12;79.20;;;8.27;;
19664;SDS011;9980;51.020;7.772;2023-02-22T03:27:54;38.00;;;7.60;;
19664;SDS011;9980;51.020;7.772;2023-02-22T03:30:33;46.77;;;6.83;;
19664;SDS011;9980;51.020;7.772;2023-02-22T03:33:16;18.00;;;7.17;;
19664;SDS011;9980;51.020;7.772;2023-02-22T03:35:56;65.20;;;8.93;;
19664;SDS011;9980;51.020;7.772;2023-02-22T03:38:31;35.37;;;8.77;;
19664;SDS011;9980;51.020;7.772;2023-02-22T03:41:03;70.60;;;16.37;;
19664;SDS011;9980;51.020;7.772;2023-02-22T03:43:39;76.00;;;19.80;;
19664;SDS011;9980;51.020;7.772;2023-02-22T03:46:14;59.90;;;19.77;;
19664;SDS011;9980;51.020;7.772;2023-02-22T03:48:53;58.73;;;14.30;;
19664;SDS011;9980;51.020;7.772;2023-02-22T03:51:42;28.10;;;8.03;;
19664;SDS011;9980;51.020;7.772;2023-02-22T03:54:09;27.40;;;7.00;;
19664;SDS011;9980;51.020;7.772;2023-02-22T03:56:47;12.93;;;7.03;;
19664;SDS011;9980;51.020;7.772;2023-02-22T03:59:20;38.47;;;14.87;;
19664;SDS011;9980;51.020;7.772;2023-02-22T04:01:53;57.03;;;13.67;;
19664;SDS011;9980;51.020;7.772;2023-02-22T04:04:22;8.83;;;7.93;;
19664;SDS011;9980;51.020;7.772;2023-02-22T04:06:50;47.17;;;8.13;;
19664;SDS011;9980;51.020;7.772;2023-02-22T04:09:18;19.83;;;7.57;;
19664;SDS011;9980;51.020;7.772;2023-02-22T04:11:47;39.57;;;9.47;;
19664;SDS011;9980;51.020;7.772;2023-02-22T04:14:14;30.33;;;15.23;;
19664;SDS011;9980;51.020;7.772;2023-02-22T04:16:42;27.23;;;12.40;;
19664;SDS011;9980;51.020;7.772;2023-02-22T04:19:09;22.03;;;9.60;;
19664;SDS011;9980;51.020;7.772;2023-02-22T04:21:37;42.17;;;7.33;;
19664;SDS011;9980;51.020;7.772;2023-02-22T04:24:09;25.87;;;7.83;;
19664;SDS011;9980;51.020;7.772;2023-02-22T04:26:38;27.20;;;7.13;;
19664;SDS011;9980;51.020;7.772;2023-02-22T04:29:06;32.90;;;8.53;;
19664;SDS011;9980;51.020;7.772;2023-02-22T04:31:36;29.43;;;11.33;;
19664;SDS011;9980;51.020;7.772;2023-02-22T04:34:04;41.90;;;14.00;;
19664;SDS011;9980;51.020;7.772;2023-02-22T04:36:35;35.63;;;12.80;;
19664;SDS011;9980;51.020;7.772;2023-02-22T04:39:02;40.90;;;12.50;;
19664;SDS011;9980;51.020;7.772;2023-02-22T04:41:30;40.80;;;16.57;;
19664;SDS011;9980;51.020;7.772;2023-02-22T04:43:57;29.90;;;11.17;;
19664;SDS011;9980;51.020;7.772;2023-02-22T04:46:25;34.90;;;10.67;;
19664;SDS011;9980;51.020;7.772;2023-02-22T04:48:52;22.03;;;9.83;;
19664;SDS011;9980;51.020;7.772;2023-02-22T04:51:23;45.10;;;8.87;;
19664;SDS011;9980;51.020;7.772;2023-02-22T04:53:57;54.37;;;8.40;;
19664;SDS011;9980;51.020;7.772;2023-02-22T04:56:24;32.60;;;6.83;;
19664;SDS011;9980;51.020;7.772;2023-02-22T04:58:51;55.80;;;7.73;;
19664;SDS011;9980;51.020;7.772;2023-02-22T05:01:18;54.80;;;7.93;;
19664;SDS011;9980;51.020;7.772;2023-02-22T05:03:46;35.70;;;6.43;;
19664;SDS011;9980;51.020;7.772;2023-02-22T05:06:13;35.90;;;7.50;;
19664;SDS011;9980;51.020;7.772;2023-02-22T05:08:41;59.73;;;8.13;;
19664;SDS011;9980;51.020;7.772;2023-02-22T05:11:08;31.83;;;8.80;;
19664;SDS011;9980;51.020;7.772;2023-02-22T05:13:35;40.60;;;9.07;;
19664;SDS011;9980;51.020;7.772;2023-02-22T05:16:02;44.87;;;13.77;;
19664;SDS011;9980;51.020;7.772;2023-02-22T05:18:29;32.60;;;11.33;;
19664;SDS011;9980;51.020;7.772;2023-02-22T05:20:56;24.67;;;9.70;;
19664;SDS011;9980;51.020;7.772;2023-02-22T05:23:23;69.47;;;12.20;;
19664;SDS011;9980;51.020;7.772;2023-02-22T05:25:50;33.07;;;13.83;;
19664;SDS011;9980;51.020;7.772;2023-02-22T05:28:17;26.83;;;9.63;;
19664;SDS011;9980;51.020;7.772;2023-02-22T05:30:44;13.80;;;8.13;;
19664;SDS011;9980;51.020;7.772;2023-02-22T05:33:11;40.07;;;9.97;;
19664;SDS011;9980;51.020;7.772;2023-02-22T05:35:38;29.17;;;10.30;;
19664;SDS011;9980;51.020;7.772;2023-02-22T05:38:05;34.77;;;9.27;;
19664;SDS011;9980;51.020;7.772;2023-02-22T05:40:33;57.90;;;9.03;;
19664;SDS011;9980;51.020;7.772;2023-02-22T05:43:00;25.67;;;8.03;;
19664;SDS011;9980;51.020;7.772;2023-02-22T05:45:28;23.10;;;7.57;;
19664;SDS011;9980;51.020;7.772;2023-02-22T05:47:55;21.87;;;6.33;;
19664;SDS011;9980;51.020;7.772;2023-02-22T05:50:23;29.83;;;8.10;;
19664;SDS011;9980;51.020;7.772;2023-02-22T05:52:51;20.43;;;8.63;;
19664;SDS011;9980;51.020;7.772;2023-02-22T05:55:22;41.00;;;9.77;;
19664;SDS011;9980;51.020;7.772;2023-02-22T05:57:50;14.47;;;8.40;;
19664;SDS011;9980;51.020;7.772;2023-02-22T06:00:27;18.50;;;10.60;;
19664;SDS011;9980;51.020;7.772;2023-02-22T06:02:56;16.07;;;11.40;;
19664;SDS011;9980;51.020;7.772;2023-02-22T06:05:31;40.40;;;11.10;;
19664;SDS011;9980;51.020;7.772;2023-02-22T06:07:59;37.23;;;8.90;;
19664;SDS011;9980;51.020;7.772;2023-02-22T06:10:27;60.63;;;12.00;;
19664;SDS011;9980;51.020;7.772;2023-02-22T06:12:55;57.93;;;10.23;;
19664;SDS011;9980;51.020;7.772;2023-02-22T06:15:23;33.93;;;8.33;;
19664;SDS011;9980;51.020;7.772;2023-02-22T06:17:53;18.50;;;7.47;;
19664;SDS011;9980;51.020;7.772;2023-02-22T06:20:22;14.37;;;10.90;;
19664;SDS011;9980;51.020;7.772;2023-02-22T06:22:55;43.93;;;15.47;;
19664;SDS011;9980;51.020;7.772;2023-02-22T06:25:24;30.13;;;15.03;;
19664;SDS011;9980;51.020;7.772;2023-02-22T06:27:56;58.53;;;13.97;;
19664;SDS011;9980;51.020;7.772;2023-02-22T06:30:25;17.43;;;8.97;;
19664;SDS011;9980;51.020;7.772;2023-02-22T06:32:54;43.63;;;10.10;;
19664;SDS011;9980;51.020;7.772;2023-02-22T06:35:21;30.73;;;10.50;;
19664;SDS011;9980;51.020;7.772;2023-02-22T06:37:48;43.50;;;13.37;;
19664;SDS011;9980;51.020;7.772;2023-02-22T06:40:15;36.40;;;16.67;;
19664;SDS011;9980;51.020;7.772;2023-02-22T06:42:42;36.67;;;12.43;;
19664;SDS011;9980;51.020;7.772;2023-02-22T06:45:09;44.77;;;13.03;;
19664;SDS011;9980;51.020;7.772;2023-02-22T06:47:40;55.40;;;21.90;;
19664;SDS011;9980;51.020;7.772;2023-02-22T06:50:17;89.83;;;25.33;;
19664;SDS011;9980;51.020;7.772;2023-02-22T06:52:49;53.23;;;12.47;;
19664;SDS011;9980;51.020;7.772;2023-02-22T06:55:17;65.97;;;14.37;;
19664;SDS011;9980;51.020;7.772;2023-02-22T06:57:50;25.90;;;10.60;;
19664;SDS011;9980;51.020;7.772;2023-02-22T07:00:18;25.40;;;11.00;;
19664;SDS011;9980;51.020;7.772;2023-02-22T07:02:48;48.50;;;12.20;;
19664;SDS011;9980;51.020;7.772;2023-02-22T07:05:16;51.47;;;12.47;;
19664;SDS011;9980;51.020;7.772;2023-02-22T07:07:48;69.07;;;20.93;;
19664;SDS011;9980;51.020;7.772;2023-02-22T07:10:24;42.77;;;16.03;;
19664;SDS011;9980;51.020;7.772;2023-02-22T07:12:54;58.97;;;14.73;;
19664;SDS011;9980;51.020;7.772;2023-02-22T07:15:22;46.47;;;11.70;;
19664;SDS011;9980;51.020;7.772;2023-02-22T07:17:51;57.53;;;16.40;;
19664;SDS011;9980;51.020;7.772;2023-02-22T07:20:18;26.73;;;13.27;;
19664;SDS011;9980;51.020;7.772;2023-02-22T07:22:47;45.73;;;13.57;;
19664;SDS011;9980;51.020;7.772;2023-02-22T07:25:15;56.13;;;14.20;;
19664;SDS011;9980;51.020;7.772;2023-02-22T07:27:50;30.77;;;11.60;;
19664;SDS011;9980;51.020;7.772;2023-02-22T07:30:26;24.53;;;11.70;;
19664;SDS011;9980;51.020;7.772;2023-02-22T07:32:57;22.27;;;14.60;;
19664;SDS011;9980;51.020;7.772;2023-02-22T07:35:31;36.40;;;15.03;;
19664;SDS011;9980;51.020;7.772;2023-02-22T07:38:04;44.07;;;16.17;;
19664;SDS011;9980;51.020;7.772;2023-02-22T07:40:36;35.00;;;13.63;;
19664;SDS011;9980;51.020;7.772;2023-02-22T07:43:04;42.03;;;13.00;;
19664;SDS011;9980;51.020;7.772;2023-02-22T07:45:45;45.73;;;13.23;;
19664;SDS011;9980;51.020;7.772;2023-02-22T07:48:14;46.37;;;14.27;;
19664;SDS011;9980;51.020;7.772;2023-02-22T07:50:44;31.00;;;13.00;;
19664;SDS011;9980;51.020;7.772;2023-02-22T07:53:27;102.80;;;16.57;;
19664;SDS011;9980;51.020;7.772;2023-02-22T07:55:59;36.10;;;13.10;;
19664;SDS011;9980;51.020;7.772;2023-02-22T07:58:38;54.57;;;13.10;;
19664;SDS011;9980;51.020;7.772;2023-02-22T08:01:05;60.70;;;14.07;;
19664;SDS011;9980;51.020;7.772;2023-02-22T08:03:32;43.03;;;16.10;;
19664;SDS011;9980;51.020;7.772;2023-02-22T08:06:02;74.43;;;23.97;;
19664;SDS011;9980;51.020;7.772;2023-02-22T08:08:31;80.30;;;25.07;;
19664;SDS011;9980;51.020;7.772;2023-02-22T08:10:59;62.93;;;23.40;;
19664;SDS011;9980;51.020;7.772;2023-02-22T08:13:26;63.23;;;16.33;;
19664;SDS011;9980;51.020;7.772;2023-02-22T08:15:53;60.17;;;13.13;;
19664;SDS011;9980;51.020;7.772;2023-02-22T08:18:23;65.33;;;12.40;;
19664;SDS011;9980;51.020;7.772;2023-02-22T08:20:51;79.67;;;14.13;;
19664;SDS011;9980;51.020;7.772;2023-02-22T08:23:20;83.60;;;14.90;;
19664;SDS011;9980;51.020;7.772;2023-02-22T08:25:52;97.73;;;15.20;;
19664;SDS011;9980;51.020;7.772;2023-02-22T08:28:20;30.47;;;11.47;;
19664;SDS011;9980;51.020;7.772;2023-02-22T08:30:50;71.90;;;14.83;;
19664;SDS011;9980;51.020;7.772;2023-02-22T08:33:24;53.77;;;13.83;;
19664;SDS011;9980;51.020;7.772;2023-02-22T08:35:51;96.13;;;16.50;;
19664;SDS011;9980;51.020;7.772;2023-02-22T08:38:20;44.47;;;12.83;;
19664;SDS011;9980;51.020;7.772;2023-02-22T08:40:51;16.80;;;13.23;;
19664;SDS011;9980;51.020;7.772;2023-02-22T08:43:19;56.67;;;14.80;;
19664;SDS011;9980;51.020;7.772;2023-02-22T08:45:46;48.97;;;13.70;;
19664;SDS011;9980;51.020;7.772;2023-02-22T08:48:15;42.33;;;13.17;;
19664;SDS011;9980;51.020;7.772;2023-02-22T08:50:48;31.40;;;13.50;;
19664;SDS011;9980;51.020;7.772;2023-02-22T08:53:22;40.63;;;12.80;;
19664;SDS011;9980;51.020;7.772;2023-02-22T08:55:51;22.40;;;12.73;;
19664;SDS011;9980;51.020;7.772;2023-02-22T08:58:19;36.23;;;14.33;;
19664;SDS011;9980;51.020;7.772;2023-02-22T09:00:45;17.87;;;13.07;;
19664;SDS011;9980;51.020;7.772;2023-02-22T09:03:13;20.70;;;11.93;;
19664;SDS011;9980;51.020;7.772;2023-02-22T09:05:41;42.07;;;15.33;;
19664;SDS011;9980;51.020;7.772;2023-02-22T09:08:09;24.80;;;13.43;;
19664;SDS011;9980;51.020;7.772;2023-02-22T09:10:36;15.33;;;12.83;;
19664;SDS011;9980;51.020;7.772;2023-02-22T09:13:04;18.10;;;13.90;;
19664;SDS011;9980;51.020;7.772;2023-02-22T09:15:31;16.77;;;13.50;;
19664;SDS011;9980;51.020;7.772;2023-02-22T09:18:01;20.03;;;15.20;;
19664;SDS011;9980;51.020;7.772;2023-02-22T09:20:30;18.00;;;14.73;;
19664;SDS011;9980;51.020;7.772;2023-02-22T09:22:57;15.97;;;12.77;;
19664;SDS011;9980;51.020;7.772;2023-02-22T09:25:27;19.90;;;12.90;;
19664;SDS011;9980;51.020;7.772;2023-02-22T09:27:58;16.33;;;12.77;;
19664;SDS011;9980;51.020;7.772;2023-02-22T09:30:26;16.83;;;12.93;;
19664;SDS011;9980;51.020;7.772;2023-02-22T09:33:05;14.03;;;10.97;;
19664;SDS011;9980;51.020;7.772;2023-02-22T09:35:40;16.20;;;12.90;;
19664;SDS011;9980;51.020;7.772;2023-02-22T09:38:12;15.50;;;12.20;;
19664;SDS011;9980;51.020;7.772;2023-02-22T09:40:51;15.27;;;12.47;;
19664;SDS011;9980;51.020;7.772;2023-02-22T09:49:17;15.53;;;12.37;;
19664;SDS011;9980;51.020;7.772;2023-02-22T09:52:01;16.87;;;12.10;;
19664;SDS011;9980;51.020;7.772;2023-02-22T09:54:39;14.67;;;12.17;;
19664;SDS011;9980;51.020;7.772;2023-02-22T09:57:19;13.40;;;11.37;;
19664;SDS011;9980;51.020;7.772;2023-02-22T10:05:56;13.00;;;11.63;;
19664;SDS011;9980;51.020;7.772;2023-02-22T10:08:32;15.00;;;12.10;;
19664;SDS011;9980;51.020;7.772;2023-02-22T10:13:38;15.27;;;13.23;;
19664;SDS011;9980;51.020;7.772;2023-02-22T10:22:07;16.77;;;14.10;;
19664;SDS011;9980;51.020;7.772;2023-02-22T10:25:21;16.03;;;13.37;;
19664;SDS011;9980;51.020;7.772;2023-02-22T10:30:51;15.40;;;13.03;;
19664;SDS011;9980;51.020;7.772;2023-02-22T10:33:31;15.83;;;12.47;;
19664;SDS011;9980;51.020;7.772;2023-02-22T10:36:15;16.27;;;13.10;;
19664;SDS011;9980;51.020;7.772;2023-02-22T10:38:49;17.00;;;13.70;;
19664;SDS011;9980;51.020;7.772;2023-02-22T10:41:37;16.20;;;13.03;;
19664;SDS011;9980;51.020;7.772;2023-02-22T10:44:14;15.20;;;12.43;;
19664;SDS011;9980;51.020;7.772;2023-02-22T10:46:43;15.87;;;13.30;;
19664;SDS011;9980;51.020;7.772;2023-02-22T10:49:20;16.37;;;12.57;;
19664;SDS011;9980;51.020;7.772;2023-02-22T10:52:00;15.97;;;11.67;;
19664;SDS011;9980;51.020;7.772;2023-02-22T10:54:38;17.43;;;12.37;;
19664;SDS011;9980;51.020;7.772;2023-02-22T10:57:10;15.97;;;13.13;;
19664;SDS011;9980;51.020;7.772;2023-02-22T10:59:53;16.30;;;13.33;;
19664;SDS011;9980;51.020;7.772;2023-02-22T11:02:31;19.13;;;13.90;;
19664;SDS011;9980;51.020;7.772;2023-02-22T11:05:01;20.70;;;14.23;;
19664;SDS011;9980;51.020;7.772;2023-02-22T11:07:32;16.10;;;12.77;;
19664;SDS011;9980;51.020;7.772;2023-02-22T11:10:02;15.67;;;12.77;;
19664;SDS011;9980;51.020;7.772;2023-02-22T11:12:36;17.40;;;12.67;;
19664;SDS011;9980;51.020;7.772;2023-02-22T11:17:45;14.53;;;12.03;;
19664;SDS011;9980;51.020;7.772;2023-02-22T11:20:17;15.13;;;12.27;;
19664;SDS011;9980;51.020;7.772;2023-02-22T11:23:01;17.30;;;13.37;;
19664;SDS011;9980;51.020;7.772;2023-02-22T11:25:31;13.57;;;11.13;;
19664;SDS011;9980;51.020;7.772;2023-02-22T11:30:56;16.23;;;11.37;;
19664;SDS011;9980;51.020;7.772;2023-02-22T11:33:58;15.47;;;11.20;;
19664;SDS011;9980;51.020;7.772;2023-02-22T11:39:04;11.87;;;10.37;;
19664;SDS011;9980;51.020;7.772;2023-02-22T11:41:47;14.00;;;10.70;;
19664;SDS011;9980;51.020;7.772;2023-02-22T11:44:31;11.37;;;10.17;;
19664;SDS011;9980;51.020;7.772;2023-02-22T11:47:00;12.03;;;10.13;;
19664;SDS011;9980;51.020;7.772;2023-02-22T11:49:33;11.90;;;9.50;;
19664;SDS011;9980;51.020;7.772;2023-02-22T11:52:15;11.93;;;8.77;;
19664;SDS011;9980;51.020;7.772;2023-02-22T11:55:08;10.33;;;8.73;;
19664;SDS011;9980;51.020;7.772;2023-02-22T12:04:20;9.40;;;7.43;;
19664;SDS011;9980;51.020;7.772;2023-02-22T12:10:14;6.70;;;5.07;;
19664;SDS011;9980;51.020;7.772;2023-02-22T12:19:42;7.43;;;6.07;;
19664;SDS011;9980;51.020;7.772;2023-02-22T12:28:44;10.07;;;6.07;;
19664;SDS011;9980;51.020;7.772;2023-02-22T12:39:50;8.33;;;6.23;;
19664;SDS011;9980;51.020;7.772;2023-02-22T12:45:51;7.67;;;5.57;;
19664;SDS011;9980;51.020;7.772;2023-02-22T12:48:45;6.87;;;5.53;;
19664;SDS011;9980;51.020;7.772;2023-02-22T12:51:28;6.20;;;5.47;;
19664;SDS011;9980;51.020;7.772;2023-02-22T12:57:43;6.97;;;5.63;;
19664;SDS011;9980;51.020;7.772;2023-02-22T13:00:42;7.07;;;5.77;;
19664;SDS011;9980;51.020;7.772;2023-02-22T13:03:34;5.97;;;5.20;;
19664;SDS011;9980;51.020;7.772;2023-02-22T13:12:01;6.17;;;5.30;;
19664;SDS011;9980;51.020;7.772;2023-02-22T13:17:50;9.60;;;5.73;;
19664;SDS011;9980;51.020;7.772;2023-02-22T13:20:37;6.50;;;5.23;;
19664;SDS011;9980;51.020;7.772;2023-02-22T13:23:30;6.27;;;5.60;;
19664;SDS011;9980;51.020;7.772;2023-02-22T13:26:39;6.00;;;5.17;;
19664;SDS011;9980;51.020;7.772;2023-02-22T13:29:15;5.87;;;5.20;;
19664;SDS011;9980;51.020;7.772;2023-02-22T13:41:23;7.60;;;5.70;;
19664;SDS011;9980;51.020;7.772;2023-02-22T13:44:37;5.93;;;4.80;;
19664;SDS011;9980;51.020;7.772;2023-02-22T13:54:36;6.47;;;4.77;;
19664;SDS011;9980;51.020;7.772;2023-02-22T14:10:51;5.60;;;5.10;;
19664;SDS011;9980;51.020;7.772;2023-02-22T14:13:25;7.63;;;5.23;;
19664;SDS011;9980;51.020;7.772;2023-02-22T14:18:47;5.70;;;5.13;;
19664;SDS011;9980;51.020;7.772;2023-02-22T14:21:34;5.47;;;4.97;;
19664;SDS011;9980;51.020;7.772;2023-02-22T14:24:08;7.90;;;5.97;;
19664;SDS011;9980;51.020;7.772;2023-02-22T14:26:52;7.73;;;5.50;;
19664;SDS011;9980;51.020;7.772;2023-02-22T14:29:28;6.47;;;5.73;;
19664;SDS011;9980;51.020;7.772;2023-02-22T14:31:58;6.17;;;5.63;;
19664;SDS011;9980;51.020;7.772;2023-02-22T14:37:47;8.90;;;6.70;;
19664;SDS011;9980;51.020;7.772;2023-02-22T14:40:22;8.07;;;6.70;;
19664;SDS011;9980;51.020;7.772;2023-02-22T14:43:10;7.87;;;6.67;;
19664;SDS011;9980;51.020;7.772;2023-02-22T14:45:51;7.83;;;6.70;;
19664;SDS011;9980;51.020;7.772;2023-02-22T14:48:26;8.63;;;7.20;;
19664;SDS011;9980;51.020;7.772;2023-02-22T14:51:22;9.20;;;7.27;;
19664;SDS011;9980;51.020;7.772;2023-02-22T14:54:10;10.23;;;6.90;;
19664;SDS011;9980;51.020;7.772;2023-02-22T14:59:25;8.33;;;6.80;;
19664;SDS011;9980;51.020;7.772;2023-02-22T15:02:03;9.00;;;6.40;;
19664;SDS011;9980;51.020;7.772;2023-02-22T15:04:37;10.47;;;7.40;;
19664;SDS011;9980;51.020;7.772;2023-02-22T15:07:28;10.23;;;7.40;;
19664;SDS011;9980;51.020;7.772;2023-02-22T15:13:01;7.97;;;6.90;;
19664;SDS011;9980;51.020;7.772;2023-02-22T15:18:25;10.13;;;7.03;;
19664;SDS011;9980;51.020;7.772;2023-02-22T15:21:11;9.70;;;7.00;;
19664;SDS011;9980;51.020;7.772;2023-02-22T15:23:51;9.90;;;6.93;;
19664;SDS011;9980;51.020;7.772;2023-02-22T15:26:33;11.40;;;7.43;;
19664;SDS011;9980;51.020;7.772;2023-02-22T15:29:17;11.80;;;7.13;;
19664;SDS011;9980;51.020;7.772;2023-02-22T15:31:51;9.97;;;7.23;;
19664;SDS011;9980;51.020;7.772;2023-02-22T15:34:26;8.07;;;6.50;;
19664;SDS011;9980;51.020;7.772;2023-02-22T15:37:01;8.50;;;6.43;;
19664;SDS011;9980;51.020;7.772;2023-02-22T15:39:51;9.13;;;7.23;;
19664;SDS011;9980;51.020;7.772;2023-02-22T15:42:25;10.00;;;7.07;;
19664;SDS011;9980;51.020;7.772;2023-02-22T15:44:55;8.83;;;6.90;;
19664;SDS011;9980;51.020;7.772;2023-02-22T15:47:27;9.60;;;6.23;;
19664;SDS011;9980;51.020;7.772;2023-02-22T15:52:56;8.23;;;7.20;;
19664;SDS011;9980;51.020;7.772;2023-02-22T15:55:40;6.63;;;5.90;;
19664;SDS011;9980;51.020;7.772;2023-02-22T15:58:20;8.17;;;6.37;;
19664;SDS011;9980;51.020;7.772;2023-02-22T16:00:57;6.97;;;6.27;;
19664;SDS011;9980;51.020;7.772;2023-02-22T16:03:36;9.37;;;7.23;;
19664;SDS011;9980;51.020;7.772;2023-02-22T16:06:35;10.80;;;7.30;;
19664;SDS011;9980;51.020;7.772;2023-02-22T16:09:10;16.27;;;11.43;;
19664;SDS011;9980;51.020;7.772;2023-02-22T16:11:45;11.87;;;7.63;;
19664;SDS011;9980;51.020;7.772;2023-02-22T16:19:59;5.90;;;5.03;;
19664;SDS011;9980;51.020;7.772;2023-02-22T16:22:45;7.17;;;5.53;;
19664;SDS011;9980;51.020;7.772;2023-02-22T16:25:22;6.43;;;4.87;;
19664;SDS011;9980;51.020;7.772;2023-02-22T16:30:34;5.10;;;4.70;;
19664;SDS011;9980;51.020;7.772;2023-02-22T16:33:07;26.23;;;22.13;;
19664;SDS011;9980;51.020;7.772;2023-02-22T16:35:41;63.07;;;45.90;;
19664;SDS011;9980;51.020;7.772;2023-02-22T16:38:17;68.23;;;47.40;;
19664;SDS011;9980;51.020;7.772;2023-02-22T16:40:47;55.33;;;40.83;;
19664;SDS011;9980;51.020;7.772;2023-02-22T16:43:21;62.00;;;44.17;;
19664;SDS011;9980;51.020;7.772;2023-02-22T16:45:58;60.73;;;38.80;;
19664;SDS011;9980;51.020;7.772;2023-02-22T16:48:36;38.77;;;27.63;;
19664;SDS011;9980;51.020;7.772;2023-02-22T16:51:11;23.17;;;17.53;;
19664;SDS011;9980;51.020;7.772;2023-02-22T16:53:52;22.70;;;16.30;;
19664;SDS011;9980;51.020;7.772;2023-02-22T16:56:28;24.17;;;16.70;;
19664;SDS011;9980;51.020;7.772;2023-02-22T16:58:59;23.70;;;17.73;;
19664;SDS011;9980;51.020;7.772;2023-02-22T17:01:40;23.93;;;16.37;;
19664;SDS011;9980;51.020;7.772;2023-02-22T17:04:21;19.50;;;15.87;;
19664;SDS011;9980;51.020;7.772;2023-02-22T17:06:56;19.57;;;14.03;;
19664;SDS011;9980;51.020;7.772;2023-02-22T17:09:24;18.53;;;16.20;;
19664;SDS011;9980;51.020;7.772;2023-02-22T17:11:54;26.87;;;20.17;;
19664;SDS011;9980;51.020;7.772;2023-02-22T17:14:34;30.63;;;22.43;;
19664;SDS011;9980;51.020;7.772;2023-02-22T17:17:02;35.83;;;26.23;;
19664;SDS011;9980;51.020;7.772;2023-02-22T17:19:29;47.43;;;33.20;;
19664;SDS011;9980;51.020;7.772;2023-02-22T17:21:56;59.27;;;39.40;;
19664;SDS011;9980;51.020;7.772;2023-02-22T17:24:23;59.90;;;39.80;;
19664;SDS011;9980;51.020;7.772;2023-02-22T17:26:59;44.93;;;28.70;;
19664;SDS011;9980;51.020;7.772;2023-02-22T17:29:42;31.87;;;21.53;;
19664;SDS011;9980;51.020;7.772;2023-02-22T17:32:16;24.53;;;17.80;;
19664;SDS011;9980;51.020;7.772;2023-02-22T17:34:48;23.00;;;16.27;;
19664;SDS011;9980;51.020;7.772;2023-02-22T17:37:20;27.70;;;19.67;;
19664;SDS011;9980;51.020;7.772;2023-02-22T17:39:47;34.97;;;24.07;;
19664;SDS011;9980;51.020;7.772;2023-02-22T17:42:19;37.07;;;25.40;;
19664;SDS011;9980;51.020;7.772;2023-02-22T17:44:48;34.87;;;23.13;;
19664;SDS011;9980;51.020;7.772;2023-02-22T17:47:15;38.13;;;24.73;;
19664;SDS011;9980;51.020;7.772;2023-02-22T17:49:42;44.93;;;27.77;;
19664;SDS011;9980;51.020;7.772;2023-02-22T17:52:09;35.57;;;23.93;;
19664;SDS011;9980;51.020;7.772;2023-02-22T17:54:40;35.93;;;23.53;;
19664;SDS011;9980;51.020;7.772;2023-02-22T17:57:08;33.80;;;22.00;;